createdAt,value
2023-03-02T00:00:17.260Z,7
2023-03-02T00:01:17.251Z,7
2023-03-02T00:02:17.276Z,7
2023-03-02T00:03:17.236Z,7
2023-03-02T00:04:17.229Z,7
2023-03-02T00:05:17.223Z,7
2023-03-02T00:06:17.189Z,7
2023-03-02T00:07:17.190Z,7
2023-03-02T00:08:17.171Z,7
2023-03-02T00:09:17.157Z,7
2023-03-02T00:10:17.158Z,8
2023-03-02T00:11:17.139Z,8
2023-03-02T00:12:17.134Z,7
2023-03-02T00:13:17.123Z,8
2023-03-02T00:14:17.126Z,8
2023-03-02T00:15:17.100Z,8
2023-03-02T00:16:17.152Z,7
2023-03-02T00:17:17.077Z,7
2023-03-02T00:18:17.076Z,7
2023-03-02T00:19:17.063Z,7
2023-03-02T00:20:17.059Z,8
2023-03-02T00:21:17.067Z,7
2023-03-02T00:22:17.037Z,7
2023-03-02T00:23:17.016Z,7
2023-03-02T00:24:17.007Z,7
2023-03-02T00:25:16.999Z,7
2023-03-02T00:26:16.985Z,8
2023-03-02T00:27:16.982Z,7
2023-03-02T00:28:16.965Z,8
2023-03-02T00:29:16.951Z,8
2023-03-02T00:30:16.962Z,8
2023-03-02T00:31:16.984Z,8
2023-03-02T00:32:16.970Z,8
2023-03-02T00:33:16.938Z,8
2023-03-02T00:34:16.962Z,8
2023-03-02T00:35:16.902Z,8
2023-03-02T00:36:16.943Z,8
2023-03-02T00:37:16.926Z,8
2023-03-02T00:38:16.864Z,8
2023-03-02T00:39:16.853Z,8
2023-03-02T00:40:16.873Z,8
2023-03-02T00:41:16.862Z,8
2023-03-02T00:42:16.854Z,8
2023-03-02T00:43:16.850Z,8
2023-03-02T00:44:16.805Z,8
2023-03-02T00:45:16.785Z,8
2023-03-02T00:46:16.786Z,8
2023-03-02T00:47:16.783Z,8
2023-03-02T00:48:16.762Z,8
2023-03-02T00:49:16.769Z,8
2023-03-02T00:50:16.734Z,8
2023-03-02T00:51:16.726Z,8
2023-03-02T00:52:16.717Z,8
2023-03-02T00:53:16.728Z,8
2023-03-02T00:54:16.696Z,8
2023-03-02T00:55:16.684Z,7
2023-03-02T00:56:16.675Z,8
2023-03-02T00:57:16.666Z,7
2023-03-02T00:58:16.656Z,8
2023-03-02T00:59:16.643Z,8
2023-03-02T01:00:16.631Z,8
2023-03-02T01:01:18.608Z,8
2023-03-02T01:02:16.653Z,8
2023-03-02T01:03:16.649Z,8
2023-03-02T01:04:16.590Z,8
2023-03-02T01:05:16.692Z,8
2023-03-02T01:06:16.579Z,8
2023-03-02T01:07:16.563Z,8
2023-03-02T01:08:16.552Z,8
2023-03-02T01:09:16.570Z,8
2023-03-02T01:10:16.546Z,8
2023-03-02T01:11:16.526Z,8
2023-03-02T01:12:16.520Z,8
2023-03-02T01:13:16.506Z,8
2023-03-02T01:14:16.489Z,8
2023-03-02T01:15:16.482Z,8
2023-03-02T01:16:16.539Z,8
2023-03-02T01:17:16.461Z,8
2023-03-02T01:18:16.449Z,8
2023-03-02T01:19:16.444Z,8
2023-03-02T01:20:16.432Z,8
2023-03-02T01:21:16.421Z,8
2023-03-02T01:22:16.416Z,8
2023-03-02T01:23:16.399Z,9
2023-03-02T01:24:16.394Z,8
2023-03-02T01:25:16.406Z,8
2023-03-02T01:26:16.373Z,9
2023-03-02T01:27:16.364Z,9
2023-03-02T01:28:16.351Z,9
2023-03-02T01:29:16.345Z,9
2023-03-02T01:30:16.362Z,9
2023-03-02T01:31:16.341Z,8
2023-03-02T01:32:16.406Z,9
2023-03-02T01:33:16.300Z,9
2023-03-02T01:34:16.290Z,9
2023-03-02T01:35:16.278Z,8
2023-03-02T01:36:16.279Z,9
2023-03-02T01:37:16.255Z,9
2023-03-02T01:38:16.337Z,8
2023-03-02T01:39:16.301Z,9
2023-03-02T01:40:16.236Z,9
2023-03-02T01:41:16.239Z,9
2023-03-02T01:42:16.203Z,9
2023-03-02T01:43:16.196Z,9
2023-03-02T01:44:16.184Z,9
2023-03-02T01:45:16.172Z,9
2023-03-02T01:46:16.167Z,9
2023-03-02T01:47:16.151Z,9
2023-03-02T01:48:16.143Z,9
2023-03-02T01:49:16.131Z,9
2023-03-02T01:50:16.121Z,9
2023-03-02T01:51:16.115Z,9
2023-03-02T01:52:16.110Z,9
2023-03-02T01:53:16.089Z,9
2023-03-02T01:54:16.083Z,9
2023-03-02T01:55:16.073Z,9
2023-03-02T01:56:16.067Z,9
2023-03-02T01:57:16.074Z,9
2023-03-02T01:58:16.051Z,9
2023-03-02T01:59:16.031Z,9
2023-03-02T02:00:16.021Z,9
2023-03-02T02:01:16.116Z,9
2023-03-02T02:02:16.008Z,9
2023-03-02T02:03:15.991Z,9
2023-03-02T02:04:16.035Z,9
2023-03-02T02:05:15.970Z,9
2023-03-02T02:06:15.958Z,9
2023-03-02T02:07:15.949Z,9
2023-03-02T02:08:15.941Z,9
2023-03-02T02:09:15.958Z,9
2023-03-02T02:10:15.917Z,8
2023-03-02T02:11:15.906Z,8
2023-03-02T02:12:15.898Z,8
2023-03-02T02:13:15.908Z,8
2023-03-02T02:14:15.878Z,8
2023-03-02T02:15:15.861Z,8
2023-03-02T02:16:15.917Z,8
2023-03-02T02:17:15.842Z,8
2023-03-02T02:18:15.837Z,8
2023-03-02T02:19:15.820Z,9
2023-03-02T02:20:15.813Z,9
2023-03-02T02:21:15.806Z,9
2023-03-02T02:22:15.790Z,9
2023-03-02T02:23:15.780Z,9
2023-03-02T02:24:15.781Z,9
2023-03-02T02:25:15.761Z,9
2023-03-02T02:26:15.747Z,9
2023-03-02T02:27:15.747Z,9
2023-03-02T02:28:15.726Z,9
2023-03-02T02:29:15.744Z,9
2023-03-02T02:30:15.709Z,9
2023-03-02T02:31:15.786Z,9
2023-03-02T02:32:15.876Z,9
2023-03-02T02:33:15.677Z,9
2023-03-02T02:34:15.670Z,9
2023-03-02T02:35:15.658Z,9
2023-03-02T02:36:15.644Z,9
2023-03-02T02:37:15.649Z,9
2023-03-02T02:38:15.628Z,9
2023-03-02T02:39:15.617Z,9
2023-03-02T02:40:15.600Z,9
2023-03-02T02:41:15.600Z,9
2023-03-02T02:42:15.584Z,9
2023-03-02T02:43:15.574Z,9
2023-03-02T02:44:15.665Z,9
2023-03-02T02:45:15.715Z,9
2023-03-02T02:46:15.638Z,9
2023-03-02T02:47:15.530Z,9
2023-03-02T02:48:15.527Z,9
2023-03-02T02:49:15.526Z,9
2023-03-02T02:50:15.501Z,9
2023-03-02T02:51:15.488Z,9
2023-03-02T02:52:15.482Z,9
2023-03-02T02:53:15.476Z,9
2023-03-02T02:54:15.461Z,9
2023-03-02T02:55:15.455Z,9
2023-03-02T02:56:15.440Z,9
2023-03-02T02:57:15.429Z,9
2023-03-02T02:58:15.418Z,10
2023-03-02T02:59:15.410Z,10
2023-03-02T03:00:15.404Z,10
2023-03-02T03:01:15.492Z,10
2023-03-02T03:02:15.380Z,10
2023-03-02T03:03:15.366Z,10
2023-03-02T03:04:15.406Z,10
2023-03-02T03:05:15.348Z,10
2023-03-02T03:06:15.336Z,10
2023-03-02T03:07:15.325Z,10
2023-03-02T03:08:15.317Z,10
2023-03-02T03:09:15.306Z,9
2023-03-02T03:10:15.293Z,10
2023-03-02T03:11:15.285Z,9
2023-03-02T03:12:15.277Z,9
2023-03-02T03:13:15.267Z,9
2023-03-02T03:14:15.285Z,9
2023-03-02T03:15:15.248Z,9
2023-03-02T03:16:15.292Z,9
2023-03-02T03:17:15.258Z,9
2023-03-02T03:18:15.213Z,9
2023-03-02T03:19:15.200Z,9
2023-03-02T03:20:15.189Z,9
2023-03-02T03:21:15.180Z,9
2023-03-02T03:22:15.173Z,9
2023-03-02T03:23:15.156Z,9
2023-03-02T03:24:15.149Z,9
2023-03-02T03:25:15.139Z,9
2023-03-02T03:26:15.139Z,9
2023-03-02T03:27:15.124Z,9
2023-03-02T03:28:15.102Z,9
2023-03-02T03:29:15.095Z,9
2023-03-02T03:30:15.092Z,9
2023-03-02T03:31:15.132Z,9
2023-03-02T03:32:15.131Z,9
2023-03-02T03:33:15.074Z,9
2023-03-02T03:34:15.042Z,9
2023-03-02T03:35:15.038Z,9
2023-03-02T03:36:15.017Z,9
2023-03-02T03:37:15.007Z,9
2023-03-02T03:38:15.001Z,9
2023-03-02T03:39:14.988Z,9
2023-03-02T03:40:14.976Z,9
2023-03-02T03:41:14.978Z,9
2023-03-02T03:42:14.958Z,9
2023-03-02T03:43:14.955Z,9
2023-03-02T03:44:14.939Z,9
2023-03-02T03:45:14.926Z,9
2023-03-02T03:46:14.930Z,9
2023-03-02T03:47:14.913Z,9
2023-03-02T03:48:14.899Z,9
2023-03-02T03:49:14.910Z,9
2023-03-02T03:50:14.873Z,9
2023-03-02T03:51:14.864Z,9
2023-03-02T03:52:14.854Z,9
2023-03-02T03:53:14.842Z,9
2023-03-02T03:54:14.833Z,9
2023-03-02T03:55:14.824Z,9
2023-03-02T03:56:14.812Z,9
2023-03-02T03:57:14.821Z,9
2023-03-02T03:58:14.815Z,9
2023-03-02T03:59:14.781Z,9
2023-03-02T04:00:14.768Z,9
2023-03-02T04:01:14.786Z,9
2023-03-02T04:02:14.776Z,9
2023-03-02T04:03:14.743Z,9
2023-03-02T04:04:14.727Z,9
2023-03-02T04:05:14.738Z,9
2023-03-02T04:06:14.712Z,9
2023-03-02T04:07:14.696Z,9
2023-03-02T04:08:14.685Z,9
2023-03-02T04:09:14.675Z,9
2023-03-02T04:10:14.667Z,9
2023-03-02T04:11:14.660Z,9
2023-03-02T04:12:14.653Z,9
2023-03-02T04:13:14.637Z,9
2023-03-02T04:14:14.621Z,9
2023-03-02T04:15:14.654Z,9
2023-03-02T04:16:14.717Z,9
2023-03-02T04:17:14.597Z,9
2023-03-02T04:18:14.591Z,9
2023-03-02T04:19:14.576Z,9
2023-03-02T04:20:14.562Z,9
2023-03-02T04:21:14.596Z,9
2023-03-02T04:22:14.570Z,9
2023-03-02T04:23:14.560Z,9
2023-03-02T04:24:14.616Z,9
2023-03-02T04:25:14.511Z,9
2023-03-02T04:26:14.505Z,9
2023-03-02T04:27:14.489Z,9
2023-03-02T04:28:16.512Z,9
2023-03-02T04:29:14.474Z,9
2023-03-02T04:30:14.462Z,9
2023-03-02T04:31:14.539Z,9
2023-03-02T04:32:14.480Z,9
2023-03-02T04:33:14.444Z,9
2023-03-02T04:34:14.428Z,9
2023-03-02T04:35:14.418Z,9
2023-03-02T04:36:14.406Z,9
2023-03-02T04:37:14.427Z,8
2023-03-02T04:38:14.388Z,9
2023-03-02T04:39:14.378Z,9
2023-03-02T04:40:14.371Z,9
2023-03-02T04:41:14.357Z,9
2023-03-02T04:42:14.351Z,9
2023-03-02T04:43:14.339Z,9
2023-03-02T04:44:14.328Z,9
2023-03-02T04:45:14.336Z,9
2023-03-02T04:46:14.383Z,9
2023-03-02T04:47:14.300Z,9
2023-03-02T04:48:14.292Z,9
2023-03-02T04:49:14.289Z,9
2023-03-02T04:50:14.277Z,9
2023-03-02T04:51:14.255Z,9
2023-03-02T04:52:14.250Z,9
2023-03-02T04:53:14.265Z,9
2023-03-02T04:54:14.230Z,9
2023-03-02T04:55:14.221Z,9
2023-03-02T04:56:14.205Z,9
2023-03-02T04:57:14.200Z,9
2023-03-02T04:58:14.188Z,8
2023-03-02T04:59:14.176Z,9
2023-03-02T05:00:14.167Z,9
2023-03-02T05:01:14.155Z,9
2023-03-02T05:02:14.236Z,9
2023-03-02T05:03:14.131Z,9
2023-03-02T05:04:14.179Z,9
2023-03-02T05:05:14.121Z,9
2023-03-02T05:06:14.103Z,9
2023-03-02T05:07:14.093Z,9
2023-03-02T05:08:14.081Z,9
2023-03-02T05:09:14.099Z,9
2023-03-02T05:10:14.066Z,9
2023-03-02T05:11:14.050Z,9
2023-03-02T05:12:14.045Z,8
2023-03-02T05:13:14.033Z,8
2023-03-02T05:14:14.021Z,9
2023-03-02T05:15:14.009Z,8
2023-03-02T05:16:14.061Z,8
2023-03-02T05:17:13.990Z,8
2023-03-02T05:18:13.984Z,8
2023-03-02T05:19:13.981Z,8
2023-03-02T05:20:13.966Z,8
2023-03-02T05:21:13.951Z,8
2023-03-02T05:22:13.955Z,8
2023-03-02T05:23:13.929Z,8
2023-03-02T05:24:13.922Z,8
2023-03-02T05:25:13.932Z,7
2023-03-02T05:26:13.904Z,8
2023-03-02T05:27:13.889Z,8
2023-03-02T05:28:13.879Z,87.
2023-03-02T05:29:13.874Z,91.
2023-03-02T05:30:13.860Z,89.
2023-03-02T05:31:13.883Z,91.
2023-03-02T05:32:13.877Z,91.
2023-03-02T05:33:13.829Z,9
2023-03-02T05:34:13.815Z,9
2023-03-02T05:35:14.291Z,8
2023-03-02T05:36:13.802Z,8
2023-03-02T05:37:13.784Z,91.
2023-03-02T05:38:13.807Z,89.
2023-03-02T05:39:13.795Z,9
2023-03-02T05:40:13.792Z,9
2023-03-02T05:41:13.768Z,93.
2023-03-02T05:42:13.734Z,93.
2023-03-02T05:43:13.725Z,94.
2023-03-02T05:44:13.722Z,92.
2023-03-02T05:45:13.708Z,93.
2023-03-02T05:46:13.898Z,93.
2023-03-02T05:47:13.729Z,93.
2023-03-02T05:48:13.672Z,91.
2023-03-02T05:49:13.661Z,91.
2023-03-02T05:50:13.653Z,89.
2023-03-02T05:51:13.648Z,86.
2023-03-02T05:52:13.634Z,86.
2023-03-02T05:53:13.620Z,85.
2023-03-02T05:54:13.614Z,81.
2023-03-02T05:55:13.613Z,77.
2023-03-02T05:56:13.602Z,78.
2023-03-02T05:57:13.601Z,76.
2023-03-02T05:58:13.630Z,76.
2023-03-02T05:59:13.563Z,70.
2023-03-02T06:00:13.545Z,64.
2023-03-02T06:01:15.467Z,62.
2023-03-02T06:02:13.615Z,61.
2023-03-02T06:03:13.654Z,62.
2023-03-02T06:04:13.504Z,60.
2023-03-02T06:05:13.494Z,59.
2023-03-02T06:06:13.485Z,58.
2023-03-02T06:07:13.474Z,56.
2023-03-02T06:08:13.465Z,56.
2023-03-02T06:09:13.477Z,56.
2023-03-02T06:10:13.442Z,63.
2023-03-02T06:11:13.431Z,67.
2023-03-02T06:12:13.422Z,71.
2023-03-02T06:13:13.430Z,74.
2023-03-02T06:14:13.398Z,76.
2023-03-02T06:15:13.390Z,76.
2023-03-02T06:16:13.449Z,75.
2023-03-02T06:17:13.366Z,77.
2023-03-02T06:18:13.358Z,63.
2023-03-02T06:19:13.349Z,59.
2023-03-02T06:20:13.335Z,55.
2023-03-02T06:21:13.325Z,58.
2023-03-02T06:22:13.314Z,57.
2023-03-02T06:23:13.304Z,54.09
2023-03-02T06:24:13.292Z,53.00
2023-03-02T06:25:13.288Z,54.09
2023-03-02T06:26:13.278Z,53.40
2023-03-02T06:27:13.268Z,53.79
2023-03-02T06:28:13.250Z,51.90
2023-03-02T06:29:13.488Z,54.09
2023-03-02T06:30:13.234Z,55.09
2023-03-02T06:31:13.223Z,60.40
2023-03-02T06:32:13.477Z,66.30
2023-03-02T06:33:13.209Z,68.59
2023-03-02T06:34:13.194Z,66.90
2023-03-02T06:35:13.264Z,65.90
2023-03-02T06:36:13.286Z,64.30
2023-03-02T06:37:13.160Z,65.19
2023-03-02T06:38:13.153Z,64.19
2023-03-02T06:39:13.139Z,64.90
2023-03-02T06:40:13.141Z,65.69
2023-03-02T06:41:13.132Z,68.50
2023-03-02T06:42:13.109Z,70.69
2023-03-02T06:43:13.104Z,70.50
2023-03-02T06:44:13.088Z,68.69
2023-03-02T06:45:13.128Z,70.90
2023-03-02T06:46:13.130Z,72.19
2023-03-02T06:47:13.063Z,75.19
2023-03-02T06:48:13.046Z,73.69
2023-03-02T06:49:14.239Z,72.59
2023-03-02T06:50:13.100Z,74.00
2023-03-02T06:51:13.020Z,70.80
2023-03-02T06:52:13.005Z,71.90
2023-03-02T06:53:12.992Z,74.90
2023-03-02T06:54:12.983Z,72.50
2023-03-02T06:55:12.972Z,71.80
2023-03-02T06:56:12.970Z,75.40
2023-03-02T06:57:12.956Z,76.00
2023-03-02T06:58:12.945Z,79.50
2023-03-02T06:59:12.954Z,78.00
2023-03-02T07:00:12.929Z,75.80
2023-03-02T07:01:13.018Z,79.90
2023-03-02T07:02:12.902Z,77.69
2023-03-02T07:03:12.889Z,78.30
2023-03-02T07:04:12.884Z,74.40
2023-03-02T07:05:12.870Z,73.80
2023-03-02T07:06:12.861Z,72.09
2023-03-02T07:07:12.856Z,71.00
2023-03-02T07:08:12.840Z,70.50
2023-03-02T07:09:12.840Z,71.09
2023-03-02T07:10:12.823Z,69.90
2023-03-02T07:11:12.826Z,69.30
2023-03-02T07:12:12.797Z,69.30
2023-03-02T07:13:12.788Z,67.30
2023-03-02T07:14:12.777Z,64.90
2023-03-02T07:15:12.769Z,65.90
2023-03-02T07:16:12.756Z,66.69
2023-03-02T07:17:12.804Z,64.90
2023-03-02T07:18:12.737Z,63.59
2023-03-02T07:19:12.737Z,65.00
2023-03-02T07:20:12.713Z,65.59
2023-03-02T07:21:12.707Z,67.09
2023-03-02T07:22:12.698Z,64.09
2023-03-02T07:23:12.687Z,64.69
2023-03-02T07:24:12.672Z,64.59
2023-03-02T07:25:12.662Z,63.79
2023-03-02T07:26:12.652Z,65.59
2023-03-02T07:27:12.645Z,63.70
2023-03-02T07:28:12.634Z,62.70
2023-03-02T07:29:12.624Z,63.40
2023-03-02T07:30:12.618Z,61.50
2023-03-02T07:31:12.666Z,61.70
2023-03-02T07:32:12.865Z,59.70
2023-03-02T07:33:12.601Z,61.70
2023-03-02T07:34:12.571Z,58.90
2023-03-02T07:35:12.562Z,59.59
2023-03-02T07:36:12.568Z,60.00
2023-03-02T07:37:12.540Z,62.50
2023-03-02T07:38:12.533Z,60.29
2023-03-02T07:39:12.522Z,60.00
2023-03-02T07:40:12.513Z,60.70
2023-03-02T07:41:12.499Z,60.70
2023-03-02T07:42:12.509Z,57.20
2023-03-02T07:43:12.478Z,59.00
2023-03-02T07:44:12.471Z,59.20
2023-03-02T07:45:12.458Z,56.70
2023-03-02T07:46:12.514Z,54.59
2023-03-02T07:47:12.454Z,51.59
2023-03-02T07:48:12.429Z,53.79
2023-03-02T07:49:12.441Z,53.20
2023-03-02T07:50:12.410Z,53.90
2023-03-02T07:51:12.402Z,52.00
2023-03-02T07:52:12.389Z,52.70
2023-03-02T07:53:12.376Z,53.50
2023-03-02T07:54:12.368Z,53.00
2023-03-02T07:55:12.353Z,51.20
2023-03-02T07:56:12.348Z,52.00
2023-03-02T07:57:12.331Z,51.79
2023-03-02T07:58:12.321Z,52.59
2023-03-02T07:59:12.318Z,52.00
2023-03-02T08:00:12.304Z,52.50
2023-03-02T08:01:12.300Z,51.70
2023-03-02T08:02:12.383Z,50.79
2023-03-02T08:03:12.394Z,51.40
2023-03-02T08:04:12.263Z,52.59
2023-03-02T08:05:12.295Z,52.50
2023-03-02T08:06:12.249Z,53.00
2023-03-02T08:07:12.231Z,52.79
2023-03-02T08:08:12.228Z,52.40
2023-03-02T08:09:12.208Z,52.00
2023-03-02T08:10:12.197Z,51.79
2023-03-02T08:11:12.202Z,52.50
2023-03-02T08:12:12.174Z,51.29
2023-03-02T08:13:12.176Z,52.20
2023-03-02T08:14:12.169Z,52.79
2023-03-02T08:15:12.148Z,52.59
2023-03-02T08:16:12.213Z,51.79
2023-03-02T08:17:12.125Z,48.90
2023-03-02T08:18:12.114Z,49.00
2023-03-02T08:19:12.117Z,49.70
2023-03-02T08:20:12.098Z,50.29
2023-03-02T08:21:12.116Z,50.20
2023-03-02T08:22:12.076Z,50.50
2023-03-02T08:23:12.065Z,51.79
2023-03-02T08:24:12.050Z,50.79
2023-03-02T08:25:12.044Z,51.59
2023-03-02T08:26:14.277Z,50.90
2023-03-02T08:27:12.026Z,52.20
2023-03-02T08:28:12.011Z,52.20
2023-03-02T08:29:12.002Z,49.29
2023-03-02T08:30:12.019Z,49.40
2023-03-02T08:31:12.132Z,49.79
2023-03-02T08:32:12.151Z,52.40
2023-03-02T08:33:11.964Z,50.50
2023-03-02T08:34:11.953Z,50.59
2023-03-02T08:35:11.940Z,49.70
2023-03-02T08:36:11.929Z,50.29
2023-03-02T08:37:11.945Z,50.20
2023-03-02T08:38:11.910Z,49.79
2023-03-02T08:39:11.909Z,49.40
2023-03-02T08:40:11.896Z,48.09
2023-03-02T08:41:11.882Z,47.70
2023-03-02T08:42:11.871Z,47.09
2023-03-02T08:43:11.863Z,46.00
2023-03-02T08:44:11.849Z,48.90
2023-03-02T08:45:11.838Z,48.29
2023-03-02T08:46:11.875Z,46.40
2023-03-02T08:47:11.820Z,47.40
2023-03-02T08:48:11.806Z,46.90
2023-03-02T08:49:11.796Z,46.90
2023-03-02T08:50:11.787Z,46.90
2023-03-02T08:51:11.775Z,49.59
2023-03-02T08:52:11.760Z,45.50
2023-03-02T08:53:11.815Z,46.29
2023-03-02T08:54:11.743Z,47.20
2023-03-02T08:55:11.808Z,48.00
2023-03-02T08:56:11.718Z,46.20
2023-03-02T08:57:11.824Z,46.70
2023-03-02T08:58:11.700Z,44.09
2023-03-02T08:59:11.690Z,44.40
2023-03-02T09:00:11.677Z,44.79
2023-03-02T09:01:11.720Z,45.09
2023-03-02T09:02:11.659Z,45.90
2023-03-02T09:03:11.647Z,46.29
2023-03-02T09:04:11.694Z,45.59
2023-03-02T09:05:11.632Z,45.40
2023-03-02T09:06:11.617Z,47.00
2023-03-02T09:07:11.605Z,45.70
2023-03-02T09:08:11.604Z,46.70
2023-03-02T09:09:11.623Z,45.09
2023-03-02T09:10:11.571Z,46.50
2023-03-02T09:11:11.563Z,46.70
2023-03-02T09:12:11.561Z,45.40
2023-03-02T09:13:11.542Z,45.09
2023-03-02T09:14:11.559Z,45.59
2023-03-02T09:15:11.519Z,45.90
2023-03-02T09:16:11.559Z,45.70
2023-03-02T09:17:11.504Z,45.59
2023-03-02T09:18:11.489Z,45.40
2023-03-02T09:19:11.479Z,44.79
2023-03-02T09:20:11.479Z,45.20
2023-03-02T09:21:11.472Z,44.29
2023-03-02T09:22:11.550Z,45.70
2023-03-02T09:23:11.439Z,46.29
2023-03-02T09:24:11.426Z,46.09
2023-03-02T09:25:11.435Z,45.29
2023-03-02T09:26:11.406Z,44.79
2023-03-02T09:27:11.394Z,45.50
2023-03-02T09:28:11.387Z,45.79
2023-03-02T09:29:11.374Z,44.20
2023-03-02T09:30:11.361Z,45.00
2023-03-02T09:31:11.357Z,46.20
2023-03-02T09:32:11.555Z,45.59
2023-03-02T09:33:11.408Z,43.70
2023-03-02T09:34:11.327Z,44.70
2023-03-02T09:35:11.315Z,45.70
2023-03-02T09:36:11.303Z,45.59
2023-03-02T09:37:11.301Z,44.50
2023-03-02T09:38:11.346Z,45.90
2023-03-02T09:39:11.280Z,43.90
2023-03-02T09:40:11.378Z,43.79
2023-03-02T09:41:11.318Z,44.50
2023-03-02T09:42:11.246Z,43.59
2023-03-02T09:43:11.229Z,44.09
2023-03-02T09:44:11.219Z,44.29
2023-03-02T09:45:11.210Z,44.79
2023-03-02T09:46:11.283Z,44.59
2023-03-02T09:47:11.186Z,45.20
2023-03-02T09:48:11.176Z,43.70
2023-03-02T09:49:11.167Z,43.09
2023-03-02T09:50:11.169Z,43.20
2023-03-02T09:51:11.152Z,44.09
2023-03-02T09:52:11.137Z,42.59
2023-03-02T09:53:11.126Z,42.59
2023-03-02T09:54:11.214Z,43.09
2023-03-02T09:55:11.108Z,43.90
2023-03-02T09:56:11.094Z,43.59
2023-03-02T09:57:11.217Z,44.50
2023-03-02T09:58:11.077Z,42.50
2023-03-02T09:59:11.077Z,44.20
2023-03-02T10:00:19.164Z,43.79
2023-03-02T10:01:12.077Z,44.00
2023-03-02T10:02:11.035Z,43.90
2023-03-02T10:03:17.185Z,42.70
2023-03-02T10:04:12.145Z,44.70
2023-03-02T10:05:11.004Z,43.20
2023-03-02T10:06:11.002Z,43.70
2023-03-02T10:07:10.980Z,43.50
2023-03-02T10:08:10.972Z,42.90
2023-03-02T10:09:10.958Z,42.20
2023-03-02T10:10:10.948Z,42.40
2023-03-02T10:11:10.943Z,41.79
2023-03-02T10:12:10.924Z,42.09
2023-03-02T10:13:10.942Z,41.59
2023-03-02T10:14:10.903Z,40.79
2023-03-02T10:15:10.905Z,43.09
2023-03-02T10:16:10.941Z,41.90
2023-03-02T10:17:10.873Z,40.40
2023-03-02T10:18:10.858Z,40.90
2023-03-02T10:19:10.858Z,40.70
2023-03-02T10:20:10.940Z,40.70
2023-03-02T10:21:10.836Z,42.90
2023-03-02T10:22:10.823Z,40.79
2023-03-02T10:23:10.807Z,40.50
2023-03-02T10:24:10.803Z,42.00
2023-03-02T10:25:10.791Z,42.00
2023-03-02T10:26:10.778Z,40.09
2023-03-02T10:27:10.781Z,40.09
2023-03-02T10:28:10.759Z,39.79
2023-03-02T10:29:10.779Z,41.40
2023-03-02T10:30:10.737Z,40.90
2023-03-02T10:31:10.842Z,39.29
2023-03-02T10:32:10.780Z,38.59
2023-03-02T10:33:10.702Z,39.70
2023-03-02T10:34:10.701Z,39.50
2023-03-02T10:35:10.705Z,38.70
2023-03-02T10:36:10.675Z,39.79
2023-03-02T10:37:10.671Z,37.29
2023-03-02T10:38:10.652Z,39.29
2023-03-02T10:39:10.644Z,38.50
2023-03-02T10:40:10.626Z,36.70
2023-03-02T10:41:10.620Z,37.09
2023-03-02T10:42:10.658Z,35.90
2023-03-02T10:43:10.604Z,36.20
2023-03-02T10:44:10.589Z,33.90
2023-03-02T10:45:10.612Z,36.70
2023-03-02T10:46:10.673Z,35.50
2023-03-02T10:47:10.555Z,34.00
2023-03-02T10:48:10.546Z,33.59
2023-03-02T10:49:10.536Z,32.00
2023-03-02T10:50:10.522Z,32.50
2023-03-02T10:51:10.519Z,32.29
2023-03-02T10:52:10.503Z,31.79
2023-03-02T10:53:10.491Z,31.70
2023-03-02T10:54:10.486Z,31.00
2023-03-02T10:55:10.482Z,30.60
2023-03-02T10:56:10.461Z,31.00
2023-03-02T10:57:10.455Z,32.29
2023-03-02T10:58:10.438Z,32.29
2023-03-02T10:59:10.431Z,32.79
2023-03-02T11:00:10.425Z,33.70
2023-03-02T11:01:10.520Z,32.20
2023-03-02T11:02:10.403Z,33.40
2023-03-02T11:03:10.393Z,32.29
2023-03-02T11:04:10.459Z,32.29
2023-03-02T11:05:10.437Z,31.10
2023-03-02T11:06:10.357Z,33.00
2023-03-02T11:07:10.349Z,31.39
2023-03-02T11:08:10.343Z,31.39
2023-03-02T11:09:10.323Z,31.50
2023-03-02T11:10:10.315Z,29.70
2023-03-02T11:11:10.306Z,28.60
2023-03-02T11:12:10.428Z,27.00
2023-03-02T11:13:10.285Z,27.39
2023-03-02T11:14:10.277Z,27.70
2023-03-02T11:15:10.271Z,27.00
2023-03-02T11:16:10.313Z,27.10
2023-03-02T11:17:10.267Z,27.00
2023-03-02T11:18:10.238Z,26.20
2023-03-02T11:19:10.224Z,26.70
2023-03-02T11:20:10.210Z,25.60
2023-03-02T11:21:10.204Z,25.70
2023-03-02T11:22:10.194Z,25.29
2023-03-02T11:23:10.179Z,25.10
2023-03-02T11:24:10.656Z,25.70
2023-03-02T11:25:10.161Z,26.29
2023-03-02T11:26:10.149Z,25.29
2023-03-02T11:27:10.139Z,25.20
2023-03-02T11:28:10.125Z,22.39
2023-03-02T11:29:10.115Z,24.60
2023-03-02T11:30:10.109Z,23.29
2023-03-02T11:31:10.237Z,22.39
2023-03-02T11:32:10.243Z,21.89
2023-03-02T11:33:10.119Z,21.50
2023-03-02T11:34:17.259Z,22.20
2023-03-02T11:35:11.083Z,21.89
2023-03-02T11:36:10.040Z,21.60
2023-03-02T11:37:10.028Z,22.20
2023-03-02T11:38:10.024Z,20.70
2023-03-02T11:39:10.012Z,22.79
2023-03-02T11:40:10.012Z,20.79
2023-03-02T11:41:09.987Z,19.20
2023-03-02T11:42:10.007Z,19.20
2023-03-02T11:43:09.968Z,19.70
2023-03-02T11:44:09.958Z,20.50
2023-03-02T11:45:09.957Z,20.10
2023-03-02T11:46:21.101Z,20.50
2023-03-02T11:47:10.988Z,19.70
2023-03-02T11:48:09.923Z,18.60
2023-03-02T11:49:09.961Z,16.50
2023-03-02T11:50:09.898Z,15.39
2023-03-02T11:51:09.882Z,15.10
2023-03-02T11:52:09.877Z,14.80
2023-03-02T11:53:09.889Z,14.60
2023-03-02T11:54:09.863Z,15.30
2023-03-02T11:55:09.844Z,14.60
2023-03-02T11:56:09.835Z,14.50
2023-03-02T11:57:09.821Z,14.39
2023-03-02T11:58:09.813Z,14.19
2023-03-02T11:59:09.800Z,13.80
2023-03-02T12:00:09.788Z,14.10
2023-03-02T12:01:09.782Z,13.50
2023-03-02T12:02:09.777Z,13.50
2023-03-02T12:03:09.756Z,13.80
2023-03-02T12:04:09.853Z,13.50
2023-03-02T12:05:09.796Z,13.30
2023-03-02T12:06:09.768Z,13.19
2023-03-02T12:07:09.711Z,12.89
2023-03-02T12:12:06.264Z,13.30
2023-03-02T12:12:07.682Z,13.60
2023-03-02T12:14:46.563Z,13.69
2023-03-02T12:14:47.977Z,13.19
2023-03-02T12:21:51.099Z,13.69
2023-03-02T12:22:52.509Z,13.00
2023-03-02T12:23:52.506Z,12.69
2023-03-02T12:24:52.500Z,12.89
2023-03-02T12:25:52.479Z,11.39
2023-03-02T12:26:52.612Z,10.89
2023-03-02T12:28:57.711Z,10.50
2023-03-02T12:28:59.174Z,11.10
2023-03-02T12:29:59.164Z,11.00
2023-03-02T12:31:04.043Z,11.39
2023-03-02T12:31:59.362Z,11.30
2023-03-02T12:52:58.604Z,11.60
2023-03-02T12:53:00.023Z,11.39
2023-03-02T12:54:00.018Z,11.60
2023-03-02T12:55:00.007Z,10.80
2023-03-02T12:56:00.056Z,11.50
2023-03-02T12:56:59.986Z,11.19
2023-03-02T12:57:59.982Z,11.19
2023-03-02T12:58:59.973Z,11.60
2023-03-02T12:59:59.960Z,12.00
2023-03-02T13:00:59.975Z,11.30
2023-03-02T13:01:59.938Z,11.30
2023-03-02T13:03:00.023Z,11.30
2023-03-02T13:14:59.288Z,11.30
2023-03-02T13:15:00.714Z,11.80
2023-03-02T13:19:20.328Z,11.60
2023-03-02T13:20:21.736Z,11.19
2023-03-02T13:21:21.727Z,11.60
2023-03-02T13:22:21.784Z,12.30
2023-03-02T13:23:24.234Z,11.89
2023-03-02T13:24:21.700Z,11.80
2023-03-02T13:25:21.694Z,11.50
2023-03-02T13:26:21.682Z,11.69
2023-03-02T13:27:21.731Z,11.39
2023-03-02T13:28:21.659Z,12.30
2023-03-02T13:29:21.647Z,12.50
2023-03-02T13:36:09.069Z,12.50
2023-03-02T13:36:10.486Z,12.00
2023-03-02T13:37:10.478Z,12.00
2023-03-02T13:38:10.522Z,11.69
2023-03-02T13:39:10.458Z,12.39
2023-03-02T13:40:10.447Z,12.30
2023-03-02T13:41:10.972Z,12.19
2023-03-02T13:42:10.426Z,12.10
2023-03-02T13:43:10.421Z,12.30
2023-03-02T13:44:10.418Z,12.50
2023-03-02T13:45:10.399Z,12.60
2023-03-02T13:46:10.496Z,12.80
2023-03-02T13:47:10.378Z,12.60
2023-03-02T13:48:10.366Z,12.39
2023-03-02T13:49:11.629Z,13.19
2023-03-02T13:50:10.405Z,12.69
2023-03-02T13:51:10.339Z,13.00
2023-03-02T13:52:10.352Z,12.69
2023-03-02T13:53:10.318Z,12.10
2023-03-02T13:54:10.310Z,12.89
2023-03-02T13:55:10.307Z,12.30
2023-03-02T13:56:10.286Z,13.50
2023-03-02T13:57:10.275Z,14.19
2023-03-02T13:58:10.270Z,13.89
2023-03-02T13:59:10.253Z,14.00
2023-03-02T14:00:10.244Z,13.10
2023-03-02T14:01:10.292Z,14.10
2023-03-02T14:02:10.247Z,14.19
2023-03-02T14:03:10.213Z,13.89
2023-03-02T14:04:10.332Z,14.19
2023-03-02T14:05:10.344Z,14.19
2023-03-02T14:06:10.180Z,13.80
2023-03-02T14:07:10.170Z,13.60
2023-03-02T14:08:10.196Z,14.00
2023-03-02T14:09:10.148Z,14.30
2023-03-02T14:10:10.156Z,13.89
2023-03-02T14:11:10.139Z,14.19
2023-03-02T14:12:10.117Z,13.80
2023-03-02T14:13:10.105Z,14.00
2023-03-02T14:14:10.094Z,13.89
2023-03-02T14:15:10.174Z,14.30
2023-03-02T14:16:10.162Z,13.69
2023-03-02T14:17:10.067Z,13.89
2023-03-02T14:18:10.056Z,14.39
2023-03-02T14:19:10.047Z,14.89
2023-03-02T14:20:10.040Z,14.19
2023-03-02T14:21:10.037Z,14.00
2023-03-02T14:22:10.015Z,14.50
2023-03-02T14:23:10.005Z,14.30
2023-03-02T14:24:10.042Z,13.69
2023-03-02T14:25:09.991Z,14.00